Time;durP1;ratioP1;P1;durP2;ratioP2;P2;SDS_P1;SDS_P2;PMS_P1;PMS_P2;Temp;Humidity;BMP_temperature;BMP_pressure;BME280_temperature;BME280_humidity;BME280_pressure;Samples;Min_cycle;Max_cycle;Signal;HPM_P1;HPM_P2
2022/05/25 00:01:24;;;;;;;7.20;4.45;;;;;;;;;;5018454;28;20056;-89
2022/05/25 00:03:50;;;;;;;11.10;4.90;;;;;;;;;;5018403;28;20041;-90
2022/05/25 00:06:16;;;;;;;7.38;4.25;;;;;;;;;;5018763;28;20600;-88
2022/05/25 00:08:42;;;;;;;7.82;4.88;;;;;;;;;;5025067;28;20492;-88
2022/05/25 00:11:09;;;;;;;7.57;5.03;;;;;;;;;;5034745;28;20045;-90
2022/05/25 00:13:36;;;;;;;6.35;4.88;;;;;;;;;;5035953;28;20049;-90
2022/05/25 00:16:02;;;;;;;8.48;5.60;;;;;;;;;;5034947;28;20563;-87
2022/05/25 00:18:28;;;;;;;8.18;4.72;;;;;;;;;;5052092;28;20047;-90
2022/05/25 00:20:54;;;;;;;8.20;4.82;;;;;;;;;;5034645;28;20236;-89
2022/05/25 00:23:20;;;;;;;8.15;4.85;;;;;;;;;;5034551;28;20041;-90
2022/05/25 00:25:46;;;;;;;8.15;4.47;;;;;;;;;;5037986;28;20044;-90
2022/05/25 00:28:13;;;;;;;8.70;5.18;;;;;;;;;;5034760;28;20515;-91
2022/05/25 00:30:40;;;;;;;5.97;4.82;;;;;;;;;;5036638;28;20037;-91
2022/05/25 00:33:06;;;;;;;8.93;5.22;;;;;;;;;;5034527;28;20048;-90
2022/05/25 00:35:34;;;;;;;14.07;4.97;;;;;;;;;;5035752;28;20076;-88
2022/05/25 00:38:00;;;;;;;8.65;4.30;;;;;;;;;;5034918;28;20033;-91
2022/05/25 00:40:35;;;;;;;6.63;4.80;;;;;;;;;;5051590;28;20033;-91
2022/05/25 00:43:01;;;;;;;7.15;4.60;;;;;;;;;;5034803;28;20049;-88
2022/05/25 00:45:27;;;;;;;6.80;4.85;;;;;;;;;;5034529;28;20131;-88
2022/05/25 00:47:53;;;;;;;12.27;5.45;;;;;;;;;;5034408;28;20195;-88
2022/05/25 00:50:21;;;;;;;9.13;5.38;;;;;;;;;;5034035;28;20044;-88
2022/05/25 00:52:48;;;;;;;6.32;4.43;;;;;;;;;;5037160;28;20062;-93
2022/05/25 00:55:18;;;;;;;9.63;5.05;;;;;;;;;;5034236;28;20037;-90
2022/05/25 00:57:46;;;;;;;9.07;5.30;;;;;;;;;;5036816;28;20033;-88
2022/05/25 01:00:15;;;;;;;10.32;5.22;;;;;;;;;;5033976;28;20549;-91
2022/05/25 01:02:45;;;;;;;10.05;4.93;;;;;;;;;;5053265;28;20041;-88
2022/05/25 01:05:12;;;;;;;8.70;5.90;;;;;;;;;;5034521;28;20471;-87
2022/05/25 01:07:41;;;;;;;8.73;5.28;;;;;;;;;;5036096;28;20135;-88
2022/05/25 01:10:10;;;;;;;10.75;6.30;;;;;;;;;;5034173;28;20115;-91
2022/05/25 01:12:36;;;;;;;9.05;5.95;;;;;;;;;;5036409;28;20049;-87
2022/05/25 01:15:18;;;;;;;8.15;4.82;;;;;;;;;;5034204;28;20450;-89
2022/05/25 01:17:44;;;;;;;9.93;6.10;;;;;;;;;;5036501;28;20435;-91
2022/05/25 01:20:27;;;;;;;9.30;5.95;;;;;;;;;;5033800;28;20072;-88
2022/05/25 01:22:53;;;;;;;11.23;6.10;;;;;;;;;;5034100;28;20041;-91
2022/05/25 01:25:45;;;;;;;11.15;6.53;;;;;;;;;;5033705;28;20098;-88
2022/05/25 01:28:11;;;;;;;10.57;6.20;;;;;;;;;;5034610;28;20083;-91
2022/05/25 01:30:40;;;;;;;9.65;5.70;;;;;;;;;;5039679;28;20349;-89
2022/05/25 01:33:15;;;;;;;11.88;7.18;;;;;;;;;;5038354;28;20067;-88
2022/05/25 01:35:55;;;;;;;12.88;7.18;;;;;;;;;;5040881;28;20095;-89
2022/05/25 01:38:28;;;;;;;9.10;6.25;;;;;;;;;;5038570;28;20122;-90
2022/05/25 01:41:03;;;;;;;14.80;7.60;;;;;;;;;;5038596;28;20045;-92
2022/05/25 01:43:32;;;;;;;12.35;7.20;;;;;;;;;;5039150;28;20049;-90
2022/05/25 01:46:03;;;;;;;10.00;7.28;;;;;;;;;;5037799;28;20045;-90
2022/05/25 01:48:29;;;;;;;10.23;6.57;;;;;;;;;;5038572;28;20088;-88
2022/05/25 01:51:01;;;;;;;12.93;7.18;;;;;;;;;;5037707;28;20045;-90
2022/05/25 01:53:33;;;;;;;10.77;7.63;;;;;;;;;;5037771;28;20044;-89
2022/05/25 01:56:00;;;;;;;11.75;7.82;;;;;;;;;;5038066;28;20072;-88
2022/05/25 01:58:26;;;;;;;12.27;7.00;;;;;;;;;;5037481;28;20131;-91
2022/05/25 02:00:56;;;;;;;12.27;7.65;;;;;;;;;;5037964;28;20485;-92
2022/05/25 02:06:25;;;;;;;12.90;7.80;;;;;;;;;;5053662;28;20481;-89
2022/05/25 02:09:10;;;;;;;14.73;7.43;;;;;;;;;;5036978;28;20492;-91
2022/05/25 02:11:42;;;;;;;13.60;7.05;;;;;;;;;;5039246;28;20145;-87
2022/05/25 02:14:27;;;;;;;14.15;8.02;;;;;;;;;;5037017;28;20048;-91
2022/05/25 02:16:56;;;;;;;14.45;8.18;;;;;;;;;;5036950;28;20083;-88
2022/05/25 02:19:22;;;;;;;14.80;7.65;;;;;;;;;;5037297;28;20406;-89
2022/05/25 02:21:56;;;;;;;15.20;7.88;;;;;;;;;;5040118;28;20037;-91
2022/05/25 02:24:28;;;;;;;13.10;7.45;;;;;;;;;;5036857;28;20566;-87
2022/05/25 02:27:01;;;;;;;16.67;8.07;;;;;;;;;;5037170;28;20040;-90
2022/05/25 02:29:32;;;;;;;12.30;8.20;;;;;;;;;;5037138;28;20049;-86
2022/05/25 02:32:02;;;;;;;16.25;8.00;;;;;;;;;;5036925;28;20045;-88
2022/05/25 02:34:31;;;;;;;13.27;7.20;;;;;;;;;;5054205;28;20048;-86
2022/05/25 02:36:58;;;;;;;14.63;8.43;;;;;;;;;;5037539;28;20036;-89
2022/05/25 02:39:24;;;;;;;14.77;7.13;;;;;;;;;;5036766;28;20041;-87
2022/05/25 02:41:55;;;;;;;13.20;7.18;;;;;;;;;;5034849;28;20045;-91
2022/05/25 02:44:21;;;;;;;14.65;7.85;;;;;;;;;;5036112;28;20102;-91
2022/05/25 02:46:47;;;;;;;15.13;8.05;;;;;;;;;;5039565;28;20044;-89
2022/05/25 02:49:13;;;;;;;13.82;8.02;;;;;;;;;;5036846;28;20047;-89
2022/05/25 02:51:40;;;;;;;12.48;7.25;;;;;;;;;;5055230;28;20060;-88
2022/05/25 02:54:06;;;;;;;12.57;8.10;;;;;;;;;;5036439;28;20441;-88
2022/05/25 02:56:32;;;;;;;12.70;7.18;;;;;;;;;;5037370;28;20036;-87
2022/05/25 02:58:58;;;;;;;15.20;8.52;;;;;;;;;;5073341;28;20046;-85
2022/05/25 03:01:24;;;;;;;14.35;8.32;;;;;;;;;;5035877;28;20037;-88
2022/05/25 03:03:51;;;;;;;13.13;7.95;;;;;;;;;;5036395;28;20056;-90
2022/05/25 03:06:18;;;;;;;14.38;8.52;;;;;;;;;;5036416;28;20048;-89
2022/05/25 03:08:43;;;;;;;13.65;8.13;;;;;;;;;;5035941;28;20095;-89
2022/05/25 03:11:10;;;;;;;15.38;8.27;;;;;;;;;;5019540;28;20897;-89
2022/05/25 03:13:35;;;;;;;15.63;8.80;;;;;;;;;;5018998;28;20400;-89
2022/05/25 03:16:03;;;;;;;13.35;8.38;;;;;;;;;;5019655;28;20044;-84
2022/05/25 03:18:29;;;;;;;13.73;8.38;;;;;;;;;;5019013;28;20132;-90
2022/05/25 03:20:55;;;;;;;13.65;7.90;;;;;;;;;;5019272;28;20072;-87
2022/05/25 03:23:21;;;;;;;17.55;7.95;;;;;;;;;;5019157;28;20045;-93
2022/05/25 03:25:47;;;;;;;15.07;7.68;;;;;;;;;;5018998;28;20102;-89
2022/05/25 03:28:14;;;;;;;15.85;9.07;;;;;;;;;;5019468;28;20048;-89
2022/05/25 03:30:41;;;;;;;15.35;8.73;;;;;;;;;;5018997;28;20049;-88
2022/05/25 03:33:07;;;;;;;16.77;9.23;;;;;;;;;;5018926;28;20114;-86
2022/05/25 03:35:33;;;;;;;19.27;10.00;;;;;;;;;;5018966;28;20036;-88
2022/05/25 03:38:01;;;;;;;15.70;9.00;;;;;;;;;;5018460;28;20044;-85
2022/05/25 03:40:27;;;;;;;21.23;10.95;;;;;;;;;;5018545;28;20041;-86
2022/05/25 03:42:53;;;;;;;21.20;10.60;;;;;;;;;;5018592;28;20515;-90
2022/05/25 03:45:19;;;;;;;18.05;10.18;;;;;;;;;;5018802;28;20045;-86
2022/05/25 03:47:46;;;;;;;18.35;9.75;;;;;;;;;;5019070;28;20067;-90
2022/05/25 03:50:12;;;;;;;22.27;10.50;;;;;;;;;;5018652;28;20048;-85
2022/05/25 03:52:38;;;;;;;20.15;9.93;;;;;;;;;;5018302;28;20043;-86
2022/05/25 03:55:04;;;;;;;17.88;8.82;;;;;;;;;;5018362;28;20041;-85
2022/05/25 03:57:31;;;;;;;15.45;8.77;;;;;;;;;;5018425;28;20040;-88
2022/05/25 03:59:57;;;;;;;16.98;9.50;;;;;;;;;;5018178;28;20419;-86
2022/05/25 04:02:23;;;;;;;17.60;9.20;;;;;;;;;;5018479;28;20488;-92
2022/05/25 04:05:07;;;;;;;13.65;8.15;;;;;;;;;;5018558;28;20072;-89
2022/05/25 04:07:33;;;;;;;17.65;9.23;;;;;;;;;;5034421;28;20041;-89
2022/05/25 04:09:59;;;;;;;17.10;8.98;;;;;;;;;;5032172;28;20412;-87
2022/05/25 04:12:25;;;;;;;18.73;9.68;;;;;;;;;;5034052;28;20041;-88
2022/05/25 04:14:51;;;;;;;15.88;9.60;;;;;;;;;;5034493;28;20053;-86
2022/05/25 04:17:18;;;;;;;14.63;8.93;;;;;;;;;;5034679;28;20037;-84
2022/05/25 04:19:43;;;;;;;15.82;8.77;;;;;;;;;;5034567;28;20048;-89
2022/05/25 04:22:09;;;;;;;13.52;7.80;;;;;;;;;;5034830;28;20374;-88
2022/05/25 04:24:35;;;;;;;14.73;7.65;;;;;;;;;;5034680;28;20127;-88
2022/05/25 04:27:01;;;;;;;16.88;8.93;;;;;;;;;;5034439;28;20403;-87
2022/05/25 04:29:27;;;;;;;14.93;8.50;;;;;;;;;;5034773;28;20366;-87
2022/05/25 04:31:53;;;;;;;18.88;8.60;;;;;;;;;;5034707;28;20040;-86
2022/05/25 04:34:19;;;;;;;15.85;8.98;;;;;;;;;;5034456;28;20075;-91
2022/05/25 04:36:45;;;;;;;16.10;9.55;;;;;;;;;;5034715;28;20048;-89
2022/05/25 04:39:11;;;;;;;14.60;8.30;;;;;;;;;;5051161;28;20080;-86
2022/05/25 04:41:37;;;;;;;16.35;8.65;;;;;;;;;;5034254;28;20107;-86
2022/05/25 04:44:04;;;;;;;14.30;9.00;;;;;;;;;;5034382;28;20052;-86
2022/05/25 04:46:30;;;;;;;15.73;8.82;;;;;;;;;;5051196;28;20044;-88
2022/05/25 04:48:57;;;;;;;15.77;8.57;;;;;;;;;;5034372;28;20076;-90
2022/05/25 04:51:23;;;;;;;16.17;8.60;;;;;;;;;;5034381;28;20041;-86
2022/05/25 04:53:49;;;;;;;19.63;8.68;;;;;;;;;;5050511;28;20507;-87
2022/05/25 04:58:59;;;;;;;11.65;6.57;;;;;;;;;;5051036;28;20123;-84
2022/05/25 05:01:25;;;;;;;10.45;6.40;;;;;;;;;;5034102;28;20549;-86
2022/05/25 05:03:51;;;;;;;9.10;6.20;;;;;;;;;;5035315;28;20048;-87
2022/05/25 05:06:17;;;;;;;11.65;6.32;;;;;;;;;;5038293;28;20042;-92
2022/05/25 05:08:43;;;;;;;9.50;6.00;;;;;;;;;;5061709;28;20052;-87
2022/05/25 05:11:14;;;;;;;6.45;5.28;;;;;;;;;;5041232;28;20557;-87
2022/05/25 05:13:41;;;;;;;10.07;5.80;;;;;;;;;;5041356;28;20404;-86
2022/05/25 05:16:09;;;;;;;10.73;5.20;;;;;;;;;;5040659;28;20128;-88
2022/05/25 05:18:35;;;;;;;7.15;5.43;;;;;;;;;;5041032;28;20044;-90
2022/05/25 05:21:02;;;;;;;9.20;6.05;;;;;;;;;;5041028;28;20032;-85
2022/05/25 05:23:28;;;;;;;6.88;5.28;;;;;;;;;;5040469;28;20048;-87
2022/05/25 05:25:54;;;;;;;7.18;5.40;;;;;;;;;;5057378;28;20522;-86
2022/05/25 05:28:22;;;;;;;8.73;5.55;;;;;;;;;;5057742;28;20080;-88
2022/05/25 05:30:50;;;;;;;8.82;5.95;;;;;;;;;;5040796;28;20400;-87
2022/05/25 05:33:16;;;;;;;8.40;5.53;;;;;;;;;;5040437;28;20044;-87
2022/05/25 05:35:44;;;;;;;7.97;5.97;;;;;;;;;;5040703;28;20086;-86
2022/05/25 05:38:11;;;;;;;8.02;5.68;;;;;;;;;;5040499;28;20036;-83
2022/05/25 05:40:36;;;;;;;10.75;6.38;;;;;;;;;;5040492;28;20040;-89
2022/05/25 05:43:04;;;;;;;9.60;6.18;;;;;;;;;;5057491;28;20052;-85
2022/05/25 05:45:32;;;;;;;8.02;5.93;;;;;;;;;;5040428;28;20468;-87
2022/05/25 05:48:06;;;;;;;8.25;5.85;;;;;;;;;;5040260;28;20547;-82
2022/05/25 05:50:33;;;;;;;7.18;5.90;;;;;;;;;;5040810;28;20127;-84
2022/05/25 05:52:59;;;;;;;7.82;5.70;;;;;;;;;;5040244;28;20040;-84
2022/05/25 05:55:25;;;;;;;6.30;5.68;;;;;;;;;;5056833;28;20059;-86
2022/05/25 05:57:51;;;;;;;7.85;6.30;;;;;;;;;;5039971;28;20170;-86
2022/05/25 06:00:17;;;;;;;8.40;6.15;;;;;;;;;;5040162;28;20041;-89
2022/05/25 06:02:44;;;;;;;7.90;5.05;;;;;;;;;;5040004;28;20051;-85
2022/05/25 06:05:11;;;;;;;9.43;7.72;;;;;;;;;;5040261;28;20037;-85
2022/05/25 06:07:37;;;;;;;8.63;7.82;;;;;;;;;;5039534;28;20127;-84
2022/05/25 06:10:04;;;;;;;8.32;7.53;;;;;;;;;;5036254;28;20057;-85
2022/05/25 06:12:33;;;;;;;10.38;8.30;;;;;;;;;;5019723;28;20047;-85
2022/05/25 06:19:25;;;;;;;8.27;7.47;;;;;;;;;;5036226;28;20040;-87
2022/05/25 06:20:30;;;;;;;9.05;7.65;;;;;;;;;;5061888;28;20040;-82
2022/05/25 06:22:56;;;;;;;8.55;7.75;;;;;;;;;;5036317;28;20049;-84
2022/05/25 06:25:22;;;;;;;9.40;7.72;;;;;;;;;;5036437;28;20037;-89
2022/05/25 06:27:48;;;;;;;8.38;7.50;;;;;;;;;;5039392;28;20036;-83
2022/05/25 06:30:14;;;;;;;8.43;7.10;;;;;;;;;;5072677;28;20044;-86
2022/05/25 06:32:40;;;;;;;7.85;7.15;;;;;;;;;;5039186;28;20465;-85
2022/05/25 06:35:07;;;;;;;7.97;7.00;;;;;;;;;;5073875;28;20037;-86
2022/05/25 06:37:33;;;;;;;8.52;7.03;;;;;;;;;;5038460;28;20044;-88
2022/05/25 06:40:00;;;;;;;7.22;6.47;;;;;;;;;;5037787;28;20472;-86
2022/05/25 06:42:26;;;;;;;7.60;6.28;;;;;;;;;;5037452;28;20425;-87
2022/05/25 06:44:53;;;;;;;6.75;6.15;;;;;;;;;;5072435;28;20037;-88
2022/05/25 06:47:19;;;;;;;6.95;6.10;;;;;;;;;;5036011;28;20053;-85
2022/05/25 06:49:45;;;;;;;9.32;6.85;;;;;;;;;;5038861;28;20040;-89
2022/05/25 06:52:12;;;;;;;7.20;6.10;;;;;;;;;;5035812;28;20506;-86
2022/05/25 06:54:38;;;;;;;6.50;5.90;;;;;;;;;;5054527;28;20492;-84
2022/05/25 06:57:05;;;;;;;6.50;5.90;;;;;;;;;;5072190;28;20054;-88
2022/05/25 06:59:32;;;;;;;7.00;6.30;;;;;;;;;;5072106;28;20072;-90
2022/05/25 07:01:58;;;;;;;6.88;5.28;;;;;;;;;;5035384;28;20033;-85
2022/05/25 07:04:24;;;;;;;6.35;5.50;;;;;;;;;;5035327;28;20057;-85
2022/05/25 07:06:50;;;;;;;6.60;5.65;;;;;;;;;;5072041;28;20044;-87
2022/05/25 07:09:16;;;;;;;6.90;5.50;;;;;;;;;;5035223;28;20064;-86
2022/05/25 07:11:42;;;;;;;6.72;5.28;;;;;;;;;;5038214;28;20079;-88
2022/05/25 07:14:09;;;;;;;6.18;5.45;;;;;;;;;;5052215;28;20045;-85
2022/05/25 07:16:36;;;;;;;6.15;4.35;;;;;;;;;;5037109;28;20390;-87
2022/05/25 07:19:03;;;;;;;6.72;5.18;;;;;;;;;;5035240;28;20124;-87
2022/05/25 07:21:33;;;;;;;5.00;4.43;;;;;;;;;;5036313;28;20044;-85
2022/05/25 07:24:00;;;;;;;5.80;4.82;;;;;;;;;;5035566;28;20041;-86
2022/05/25 07:26:27;;;;;;;4.53;4.10;;;;;;;;;;5051517;28;20083;-85
2022/05/25 07:28:53;;;;;;;4.88;4.18;;;;;;;;;;5071968;28;20040;-87
2022/05/25 07:31:21;;;;;;;5.13;3.92;;;;;;;;;;5035223;28;20048;-86
2022/05/25 07:33:50;;;;;;;4.93;4.35;;;;;;;;;;5037822;28;20041;-84
2022/05/25 07:36:16;;;;;;;5.72;4.15;;;;;;;;;;5034596;28;20480;-85
2022/05/25 07:38:46;;;;;;;4.90;4.20;;;;;;;;;;5054069;28;20397;-86
2022/05/25 07:41:12;;;;;;;;;;;;;;;;;;5035397;28;20037;-85
2022/05/25 07:43:39;;;;;;;4.68;4.03;;;;;;;;;;5036440;28;19924;-87
2022/05/25 07:46:05;;;;;;;6.15;4.32;;;;;;;;;;5071492;28;20055;-87
2022/05/25 07:48:31;;;;;;;6.03;4.88;;;;;;;;;;5035965;28;20467;-83
2022/05/25 07:50:57;;;;;;;5.85;4.47;;;;;;;;;;5034831;28;20045;-90
2022/05/25 07:56:08;;;;;;;6.10;4.60;;;;;;;;;;5051001;28;20175;-87
2022/05/25 07:58:34;;;;;;;4.47;4.00;;;;;;;;;;5053199;28;20037;-86
2022/05/25 08:01:03;;;;;;;5.38;3.60;;;;;;;;;;5071808;28;20499;-85
2022/05/25 08:06:13;;;;;;;4.45;4.05;;;;;;;;;;5052042;28;20037;-84
2022/05/25 08:08:39;;;;;;;3.50;3.20;;;;;;;;;;5036890;28;20518;-88
2022/05/25 08:11:08;;;;;;;4.30;3.45;;;;;;;;;;5034570;28;20051;-86
2022/05/25 08:13:35;;;;;;;4.15;3.70;;;;;;;;;;5035387;28;20049;-83
2022/05/25 08:16:02;;;;;;;7.25;3.75;;;;;;;;;;5034625;28;20037;-83
2022/05/25 08:18:28;;;;;;;3.80;3.50;;;;;;;;;;5051566;28;20044;-86
2022/05/25 08:20:54;;;;;;;4.55;4.03;;;;;;;;;;5034889;28;20037;-86
2022/05/25 08:23:20;;;;;;;3.90;3.42;;;;;;;;;;5035076;28;20045;-88
2022/05/25 08:25:46;;;;;;;5.20;3.30;;;;;;;;;;5037400;28;20048;-86
2022/05/25 08:28:12;;;;;;;7.07;3.92;;;;;;;;;;5035053;28;20456;-87
2022/05/25 08:30:40;;;;;;;3.50;2.97;;;;;;;;;;5036106;28;20101;-90
2022/05/25 08:33:06;;;;;;;3.88;3.03;;;;;;;;;;5034549;28;20040;-88
2022/05/25 08:35:33;;;;;;;4.32;3.40;;;;;;;;;;5035219;28;20049;-86
2022/05/25 08:37:59;;;;;;;3.92;3.35;;;;;;;;;;5033956;28;20037;-87
2022/05/25 08:40:27;;;;;;;4.75;3.10;;;;;;;;;;5054978;28;20037;-90
2022/05/25 08:42:59;;;;;;;3.78;2.95;;;;;;;;;;5038098;28;20134;-88
2022/05/25 08:45:30;;;;;;;4.00;3.30;;;;;;;;;;5038715;28;20072;-84
2022/05/25 08:47:58;;;;;;;3.72;3.40;;;;;;;;;;5037950;28;20041;-86
2022/05/25 08:50:24;;;;;;;3.97;3.10;;;;;;;;;;5038053;28;20489;-89
2022/05/25 08:52:54;;;;;;;3.88;2.92;;;;;;;;;;5038166;28;20068;-84
2022/05/25 08:55:20;;;;;;;;;;;;;;;;;;5038794;28;20379;-85
2022/05/25 08:57:48;;;;;;;4.20;2.78;;;;;;;;;;5040635;28;19920;-82
2022/05/25 09:00:17;;;;;;;3.72;2.58;;;;;;;;;;5038437;28;20087;-85
2022/05/25 09:02:59;;;;;;;4.38;2.90;;;;;;;;;;5040601;28;20041;-84
2022/05/25 09:05:28;;;;;;;4.22;3.15;;;;;;;;;;5037611;28;20360;-86
2022/05/25 09:08:20;;;;;;;3.73;2.93;;;;;;;;;;5038107;28;20045;-84
2022/05/25 09:10:49;;;;;;;3.65;2.60;;;;;;;;;;5040955;28;20052;-82
2022/05/25 09:13:18;;;;;;;3.90;3.50;;;;;;;;;;5040794;28;20047;-84
2022/05/25 09:18:33;;;;;;;4.05;3.33;;;;;;;;;;5057460;28;20416;-87
2022/05/25 09:21:01;;;;;;;5.43;3.13;;;;;;;;;;5024610;28;20492;-83
2022/05/25 09:23:28;;;;;;;4.45;4.05;;;;;;;;;;5040614;28;20032;-82
2022/05/25 09:25:55;;;;;;;5.00;3.75;;;;;;;;;;5041274;28;20048;-85
2022/05/25 09:28:22;;;;;;;3.88;3.33;;;;;;;;;;5040741;28;20106;-84
2022/05/25 09:30:54;;;;;;;4.38;3.97;;;;;;;;;;5057095;28;20055;-84
2022/05/25 09:33:39;;;;;;;4.97;3.90;;;;;;;;;;5040453;28;20045;-85
2022/05/25 09:36:09;;;;;;;3.80;3.40;;;;;;;;;;5040338;28;20033;-84
2022/05/25 09:38:42;;;;;;;5.80;3.63;;;;;;;;;;5040984;28;20083;-85
2022/05/25 09:41:10;;;;;;;3.95;3.63;;;;;;;;;;5040517;28;20086;-86
2022/05/25 09:43:38;;;;;;;4.13;3.72;;;;;;;;;;5040273;28;20127;-84
2022/05/25 09:46:08;;;;;;;5.75;3.83;;;;;;;;;;5056751;28;20044;-84
2022/05/25 09:48:37;;;;;;;4.78;3.47;;;;;;;;;;5040059;28;20090;-85
2022/05/25 09:51:03;;;;;;;5.03;4.28;;;;;;;;;;5039585;28;20448;-87
2022/05/25 09:53:41;;;;;;;3.75;3.45;;;;;;;;;;5040187;28;20131;-84
2022/05/25 09:56:28;;;;;;;4.28;3.72;;;;;;;;;;5057505;28;20043;-87
2022/05/25 09:58:56;;;;;;;3.55;3.17;;;;;;;;;;5056740;28;20032;-81
2022/05/25 10:01:28;;;;;;;4.65;2.70;;;;;;;;;;5040326;28;20504;-85
2022/05/25 10:03:55;;;;;;;4.63;2.50;;;;;;;;;;5040299;28;20480;-85
2022/05/25 10:06:24;;;;;;;5.60;2.53;;;;;;;;;;5039730;28;20036;-81
2022/05/25 10:08:51;;;;;;;4.60;3.22;;;;;;;;;;5040041;28;20492;-88
2022/05/25 10:11:28;;;;;;;3.45;2.80;;;;;;;;;;5040353;28;20680;-86
2022/05/25 10:13:55;;;;;;;3.47;2.67;;;;;;;;;;5039670;28;20074;-83
2022/05/25 10:16:24;;;;;;;3.53;3.20;;;;;;;;;;5039567;28;20051;-87
2022/05/25 10:18:50;;;;;;;3.15;2.80;;;;;;;;;;5039483;28;20056;-85
2022/05/25 10:21:32;;;;;;;3.75;3.13;;;;;;;;;;5039470;28;20422;-84
2022/05/25 10:23:58;;;;;;;4.45;2.70;;;;;;;;;;5039370;28;20040;-86
2022/05/25 10:26:36;;;;;;;4.03;2.70;;;;;;;;;;5056415;28;20047;-84
2022/05/25 10:29:10;;;;;;;2.50;2.30;;;;;;;;;;5039662;28;20292;-84
2022/05/25 10:37:41;;;;;;;3.35;2.60;;;;;;;;;;5056006;28;20094;-82
2022/05/25 10:40:10;;;;;;;4.97;2.78;;;;;;;;;;5039058;28;20063;-88
2022/05/25 10:42:37;;;;;;;3.60;3.20;;;;;;;;;;5039443;28;20037;-87
2022/05/25 10:45:06;;;;;;;6.30;3.00;;;;;;;;;;5039062;28;20032;-80
2022/05/25 10:47:57;;;;;;;5.20;3.22;;;;;;;;;;5038922;28;20400;-86
2022/05/25 10:50:26;;;;;;;3.50;3.20;;;;;;;;;;5039520;28;20047;-87
2022/05/25 10:52:54;;;;;;;2.97;2.67;;;;;;;;;;5038737;28;20178;-83
2022/05/25 10:55:21;;;;;;;4.22;3.40;;;;;;;;;;5038640;28;20107;-81
2022/05/25 10:57:58;;;;;;;6.80;3.33;;;;;;;;;;5039133;28;20039;-83
2022/05/25 11:00:24;;;;;;;5.28;3.88;;;;;;;;;;5039176;28;20043;-86
2022/05/25 11:03:19;;;;;;;5.55;3.80;;;;;;;;;;5038531;28;20036;-83
2022/05/25 11:05:57;;;;;;;4.78;3.40;;;;;;;;;;5038693;28;20472;-89
2022/05/25 11:08:33;;;;;;;3.40;3.10;;;;;;;;;;5038810;28;20465;-84
2022/05/25 11:11:10;;;;;;;4.07;3.53;;;;;;;;;;5039076;28;20074;-82
2022/05/25 11:13:43;;;;;;;3.47;3.17;;;;;;;;;;5038831;28;20492;-82
2022/05/25 11:16:18;;;;;;;3.45;2.88;;;;;;;;;;5038545;28;20405;-83
2022/05/25 11:18:57;;;;;;;5.00;2.92;;;;;;;;;;5038607;28;20040;-82
2022/05/25 11:21:23;;;;;;;3.60;2.65;;;;;;;;;;5055238;28;20037;-86
2022/05/25 11:24:07;;;;;;;3.67;2.90;;;;;;;;;;5038432;28;20054;-85
2022/05/25 11:26:44;;;;;;;3.55;3.25;;;;;;;;;;5055135;28;20048;-81
2022/05/25 11:29:19;;;;;;;5.57;2.33;;;;;;;;;;5038185;28;20040;-84
2022/05/25 11:31:56;;;;;;;2.47;2.28;;;;;;;;;;5038192;28;20047;-81
2022/05/25 11:34:33;;;;;;;2.53;1.77;;;;;;;;;;5038003;28;20052;-87
2022/05/25 11:37:05;;;;;;;2.40;2.13;;;;;;;;;;5037974;28;20467;-87
2022/05/25 11:39:37;;;;;;;4.50;2.70;;;;;;;;;;5037664;28;20404;-82
2022/05/25 11:42:13;;;;;;;5.25;2.70;;;;;;;;;;5037951;28;20037;-84
2022/05/25 11:44:50;;;;;;;5.53;2.72;;;;;;;;;;5038019;28;20046;-84
2022/05/25 11:47:35;;;;;;;2.65;2.45;;;;;;;;;;5054572;28;20044;-85
2022/05/25 11:50:01;;;;;;;3.83;2.70;;;;;;;;;;5038021;28;20480;-84
2022/05/25 11:52:35;;;;;;;5.05;3.47;;;;;;;;;;5054387;28;20037;-84
2022/05/25 11:55:22;;;;;;;5.05;4.63;;;;;;;;;;5037819;28;20055;-83
2022/05/25 11:58:00;;;;;;;4.05;3.20;;;;;;;;;;5037580;28;20067;-80
2022/05/25 12:00:40;;;;;;;5.07;4.00;;;;;;;;;;5054242;28;20032;-85
2022/05/25 12:03:24;;;;;;;4.55;3.47;;;;;;;;;;5037548;28;20044;-81
2022/05/25 12:06:09;;;;;;;4.30;3.90;;;;;;;;;;5037627;28;20044;-85
2022/05/25 12:08:51;;;;;;;5.13;4.45;;;;;;;;;;5037273;28;20052;-85
2022/05/25 12:11:35;;;;;;;8.55;4.75;;;;;;;;;;5054559;28;20555;-86
2022/05/25 12:14:20;;;;;;;8.57;4.32;;;;;;;;;;5037367;28;20047;-85
2022/05/25 12:16:46;;;;;;;5.95;4.47;;;;;;;;;;5037380;28;20460;-85
2022/05/25 12:19:15;;;;;;;6.95;4.95;;;;;;;;;;5037533;28;20055;-84
2022/05/25 12:21:48;;;;;;;8.60;5.25;;;;;;;;;;5037186;28;20389;-86
2022/05/25 12:24:16;;;;;;;5.20;4.35;;;;;;;;;;5037283;28;20044;-84
2022/05/25 12:26:43;;;;;;;7.07;4.55;;;;;;;;;;5037384;28;20075;-85
2022/05/25 12:29:28;;;;;;;5.97;4.70;;;;;;;;;;5037436;28;20245;-83
2022/05/25 12:31:56;;;;;;;6.28;4.60;;;;;;;;;;5037307;28;20086;-84
2022/05/25 12:34:57;;;;;;;8.85;5.45;;;;;;;;;;5053372;28;20050;-86
2022/05/25 12:37:30;;;;;;;5.97;4.40;;;;;;;;;;4993310;28;20060;-84
2022/05/25 12:40:19;;;;;;;6.88;4.00;;;;;;;;;;5011131;28;20072;-86
2022/05/25 12:42:46;;;;;;;5.68;4.43;;;;;;;;;;5035370;28;20041;-85
2022/05/25 12:48:32;;;;;;;6.03;5.05;;;;;;;;;;5054234;28;20044;-83
2022/05/25 12:50:57;;;;;;;5.93;4.13;;;;;;;;;;5037177;28;20467;-84
2022/05/25 12:53:44;;;;;;;6.40;4.93;;;;;;;;;;5053909;28;20033;-84
2022/05/25 12:56:12;;;;;;;6.05;5.10;;;;;;;;;;5036824;28;20040;-81
2022/05/25 12:58:44;;;;;;;5.72;5.03;;;;;;;;;;5036833;28;20037;-83
2022/05/25 13:01:13;;;;;;;5.88;5.35;;;;;;;;;;5036776;28;20454;-82
2022/05/25 13:04:02;;;;;;;5.05;3.72;;;;;;;;;;5053706;28;20047;-83
2022/05/25 13:06:28;;;;;;;6.50;4.10;;;;;;;;;;5053167;28;20075;-83
2022/05/25 13:08:55;;;;;;;6.30;3.90;;;;;;;;;;5036764;28;20525;-85
2022/05/25 13:11:32;;;;;;;5.97;4.00;;;;;;;;;;5036679;28;20052;-85
2022/05/25 13:13:59;;;;;;;5.85;3.47;;;;;;;;;;5036709;28;20044;-84
2022/05/25 13:16:41;;;;;;;5.68;3.17;;;;;;;;;;5053585;28;20123;-88
2022/05/25 13:19:13;;;;;;;5.97;2.97;;;;;;;;;;5042950;28;20044;-82
2022/05/25 13:21:41;;;;;;;5.13;3.10;;;;;;;;;;5056941;28;20044;-86
2022/05/25 13:24:26;;;;;;;3.25;2.60;;;;;;;;;;5056584;28;20044;-83
2022/05/25 13:26:52;;;;;;;4.35;2.03;;;;;;;;;;5060370;28;20426;-86
2022/05/25 13:29:22;;;;;;;4.53;1.67;;;;;;;;;;5061072;28;20093;-84
2022/05/25 13:31:48;;;;;;;;;;;;;;;;;;5061551;28;20050;-84
2022/05/25 13:34:17;;;;;;;2.10;1.10;;;;;;;;;;5060986;28;19920;-86
2022/05/25 13:36:44;;;;;;;2.67;0.90;;;;;;;;;;5060772;28;20071;-86
2022/05/25 13:39:14;;;;;;;1.95;1.23;;;;;;;;;;5061238;28;20040;-83
2022/05/25 13:41:48;;;;;;;1.00;0.80;;;;;;;;;;5060769;28;20882;-83
2022/05/25 13:44:34;;;;;;;3.38;1.27;;;;;;;;;;5077356;28;20075;-83
2022/05/25 13:47:02;;;;;;;1.77;0.95;;;;;;;;;;5059521;28;20044;-82
2022/05/25 13:49:31;;;;;;;5.28;1.70;;;;;;;;;;5076473;28;20040;-82
2022/05/25 13:52:12;;;;;;;2.25;1.00;;;;;;;;;;5060083;28;20075;-86
2022/05/25 13:54:39;;;;;;;3.72;1.13;;;;;;;;;;5076584;28;20051;-82
2022/05/25 13:57:07;;;;;;;2.05;0.90;;;;;;;;;;5076357;28;20036;-82
2022/05/25 13:59:39;;;;;;;2.67;0.70;;;;;;;;;;5059494;28;20127;-81
2022/05/25 14:02:11;;;;;;;3.20;0.90;;;;;;;;;;5076735;28;20590;-82
2022/05/25 14:04:38;;;;;;;3.15;1.10;;;;;;;;;;5059917;28;20075;-84
2022/05/25 14:07:05;;;;;;;1.48;1.00;;;;;;;;;;5059552;28;20109;-85
2022/05/25 14:12:18;;;;;;;4.25;1.00;;;;;;;;;;5076214;28;20048;-82
2022/05/25 14:14:50;;;;;;;1.85;0.75;;;;;;;;;;5059176;28;20446;-84
2022/05/25 14:17:24;;;;;;;1.27;0.65;;;;;;;;;;5075861;28;20044;-81
2022/05/25 14:20:02;;;;;;;4.65;1.27;;;;;;;;;;5059407;28;20063;-83
2022/05/25 14:22:32;;;;;;;4.20;0.88;;;;;;;;;;5075973;28;20043;-81
2022/05/25 14:24:59;;;;;;;1.23;0.97;;;;;;;;;;5059082;28;20036;-81
2022/05/25 14:27:25;;;;;;;1.73;0.70;;;;;;;;;;5059271;28;20036;-85
2022/05/25 14:29:52;;;;;;;3.15;0.80;;;;;;;;;;5059181;28;20036;-82
2022/05/25 14:32:30;;;;;;;3.75;1.20;;;;;;;;;;5075536;28;20032;-85
2022/05/25 14:34:58;;;;;;;2.00;0.82;;;;;;;;;;5058912;28;20036;-82
2022/05/25 14:37:27;;;;;;;2.97;0.90;;;;;;;;;;5076033;28;20038;-81
2022/05/25 14:39:56;;;;;;;1.92;0.90;;;;;;;;;;5059266;28;20082;-86
2022/05/25 14:42:27;;;;;;;1.70;0.70;;;;;;;;;;5058862;28;20043;-81
2022/05/25 14:44:55;;;;;;;2.53;0.93;;;;;;;;;;5058709;28;20071;-85
2022/05/25 14:47:28;;;;;;;2.80;0.93;;;;;;;;;;5058916;28;20374;-82
2022/05/25 14:50:02;;;;;;;0.93;0.70;;;;;;;;;;5058677;28;20088;-83
2022/05/25 14:52:29;;;;;;;2.58;0.80;;;;;;;;;;5074981;28;20044;-84
2022/05/25 14:55:07;;;;;;;1.17;0.52;;;;;;;;;;5058478;28;20169;-80
2022/05/25 14:57:33;;;;;;;3.10;0.90;;;;;;;;;;5075275;28;20036;-80
2022/05/25 15:00:01;;;;;;;2.78;0.85;;;;;;;;;;5058679;28;20040;-82
2022/05/25 15:02:37;;;;;;;7.43;1.00;;;;;;;;;;5058417;28;20040;-83
2022/05/25 15:05:22;;;;;;;3.92;0.80;;;;;;;;;;5075278;28;20039;-83
2022/05/25 15:07:53;;;;;;;2.20;1.00;;;;;;;;;;5074946;28;20468;-82
2022/05/25 15:10:20;;;;;;;5.78;0.85;;;;;;;;;;5058764;28;20043;-85
2022/05/25 15:12:46;;;;;;;1.23;0.77;;;;;;;;;;5058378;28;20043;-84
2022/05/25 15:18:30;;;;;;;3.28;0.88;;;;;;;;;;5074496;28;20127;-82
2022/05/25 15:21:17;;;;;;;3.50;0.60;;;;;;;;;;5058297;28;20494;-84
2022/05/25 15:23:47;;;;;;;4.72;0.80;;;;;;;;;;5047598;28;20051;-80
2022/05/25 15:26:13;;;;;;;;;;;;;;;;;;5075390;28;20090;-83
2022/05/25 15:28:39;;;;;;;1.00;0.50;;;;;;;;;;5057882;28;19915;-85